TimeEDT,TemperatureF,Dew PointF,Humidity,Sea Level PressureIn,VisibilityMPH,Wind Direction,Wind SpeedMPH,Gust SpeedMPH,PrecipitationIn,Events,Conditions,WindDirDegrees,DateUTC
12:56 AM,66.9,66.0,97,29.89,5.0,Calm,Calm,-,N/A,,Clear,0,2013-08-28 04:56:00
1:19 AM,68.0,66.2,94,29.88,5.0,Calm,Calm,-,N/A,,Scattered Clouds,0,2013-08-28 05:19:00
1:56 AM,66.0,64.9,96,29.88,5.0,Calm,Calm,-,N/A,,Clear,0,2013-08-28 05:56:00
2:56 AM,66.9,66.0,97,29.87,6.0,Calm,Calm,-,N/A,,Scattered Clouds,0,2013-08-28 06:56:00
3:14 AM,68.0,66.2,94,29.87,5.0,Calm,Calm,-,N/A,,Mostly Cloudy,0,2013-08-28 07:14:00
3:25 AM,68.0,66.2,94,29.86,6.0,Calm,Calm,-,N/A,,Overcast,0,2013-08-28 07:25:00
3:33 AM,68.0,66.2,94,29.86,5.0,Calm,Calm,-,N/A,,Overcast,0,2013-08-28 07:33:00
3:56 AM,68.0,68.0,100,29.86,1.8,Calm,Calm,-,N/A,,Overcast,0,2013-08-28 07:56:00
4:03 AM,68.0,66.2,94,29.86,2.5,Calm,Calm,-,N/A,,Overcast,0,2013-08-28 08:03:00
4:13 AM,68.0,66.2,94,29.86,3.0,Calm,Calm,-,N/A,,Mostly Cloudy,0,2013-08-28 08:13:00
4:20 AM,68.0,66.2,94,29.86,1.8,Calm,Calm,-,N/A,,Mostly Cloudy,0,2013-08-28 08:20:00
4:29 AM,68.0,68.0,100,29.86,2.0,NNE,4.6,-,N/A,,Scattered Clouds,20,2013-08-28 08:29:00
4:43 AM,68.0,68.0,100,29.86,1.8,NNE,3.5,-,N/A,,Mostly Cloudy,20,2013-08-28 08:43:00
4:56 AM,66.9,66.9,100,29.86,1.0,Calm,Calm,-,N/A,,Mist,0,2013-08-28 08:56:00
5:00 AM,66.2,66.2,100,29.86,0.5,Calm,Calm,-,N/A,Fog,Fog,0,2013-08-28 09:00:00
5:07 AM,66.2,66.2,100,29.86,0.2,Calm,Calm,-,N/A,Fog,Fog,0,2013-08-28 09:07:00
5:34 AM,66.2,66.2,100,29.86,0.2,Calm,Calm,-,N/A,Fog,Fog,0,2013-08-28 09:34:00
5:42 AM,66.2,66.2,100,29.86,1.0,NNW,4.6,-,N/A,,Mist,340,2013-08-28 09:42:00
5:56 AM,66.9,66.9,100,29.87,1.0,NNW,3.5,-,N/A,,Overcast,330,2013-08-28 09:56:00
6:18 AM,68.0,68.0,100,29.88,0.5,NW,4.6,-,N/A,Fog,Fog,310,2013-08-28 10:18:00
6:47 AM,68.0,68.0,100,29.88,0.2,Calm,Calm,-,N/A,Fog,Fog,0,2013-08-28 10:47:00
6:56 AM,68.0,68.0,100,29.88,0.2,Calm,Calm,-,N/A,Fog,Fog,0,2013-08-28 10:56:00
7:56 AM,69.1,69.1,100,29.88,0.2,North,3.5,-,N/A,Fog,Fog,360,2013-08-28 11:56:00
8:03 AM,69.8,69.8,100,29.88,0.5,North,4.6,-,N/A,Fog,Fog,360,2013-08-28 12:03:00
8:10 AM,69.8,69.8,100,29.88,2.0,North,3.5,-,N/A,,Overcast,350,2013-08-28 12:10:00
8:18 AM,71.6,69.8,94,29.88,4.0,NNE,3.5,-,N/A,,Mostly Cloudy,20,2013-08-28 12:18:00
8:27 AM,71.6,69.8,94,29.88,3.0,Calm,Calm,-,N/A,,Scattered Clouds,0,2013-08-28 12:27:00
8:56 AM,72.0,70.0,93,29.89,3.0,Calm,Calm,-,N/A,,Mostly Cloudy,0,2013-08-28 12:56:00
9:28 AM,71.6,69.8,94,29.89,5.0,SSE,6.9,-,N/A,,Scattered Clouds,160,2013-08-28 13:28:00
9:56 AM,73.0,70.0,90,29.89,6.0,SE,8.1,-,N/A,,Mostly Cloudy,130,2013-08-28 13:56:00
10:25 AM,73.4,69.8,88,29.89,6.0,SE,6.9,-,N/A,,Mostly Cloudy,140,2013-08-28 14:25:00
10:40 AM,73.4,69.8,88,29.89,6.0,SSE,6.9,-,N/A,,Scattered Clouds,150,2013-08-28 14:40:00
10:56 AM,75.0,70.0,84,29.90,6.0,South,8.1,-,N/A,,Haze,170,2013-08-28 14:56:00
11:10 AM,73.4,69.8,88,29.89,6.0,SE,8.1,-,N/A,,Partly Cloudy,130,2013-08-28 15:10:00
11:56 AM,75.0,70.0,84,29.89,6.0,SE,6.9,-,N/A,,Haze,140,2013-08-28 15:56:00
12:56 PM,77.0,70.0,79,29.88,6.0,SE,8.1,-,N/A,,Haze,140,2013-08-28 16:56:00
1:56 PM,75.0,70.0,84,29.88,6.0,SSE,6.9,-,N/A,,Haze,150,2013-08-28 17:56:00
2:56 PM,75.0,70.0,84,29.87,7.0,SSE,10.4,-,N/A,,Clear,150,2013-08-28 18:56:00
3:56 PM,73.9,69.1,85,29.87,7.0,SE,10.4,-,N/A,,Scattered Clouds,130,2013-08-28 19:56:00
4:03 PM,73.4,69.8,88,29.87,7.0,SE,8.1,-,N/A,,Scattered Clouds,130,2013-08-28 20:03:00
4:56 PM,71.1,69.1,93,29.89,4.0,SE,5.8,-,N/A,,Mostly Cloudy,130,2013-08-28 20:56:00
5:03 PM,69.8,69.8,100,29.89,4.0,SE,4.6,-,N/A,,Mostly Cloudy,130,2013-08-28 21:03:00
5:30 PM,71.6,69.8,94,29.88,5.0,East,4.6,-,N/A,,Overcast,90,2013-08-28 21:30:00
5:56 PM,71.1,69.1,93,29.88,5.0,SE,3.5,-,N/A,,Overcast,130,2013-08-28 21:56:00
6:56 PM,72.0,69.1,91,29.89,5.0,Calm,Calm,-,N/A,,Overcast,0,2013-08-28 22:56:00
7:56 PM,71.1,69.1,93,29.89,6.0,Calm,Calm,-,N/A,,Overcast,0,2013-08-28 23:56:00
8:06 PM,71.6,69.8,94,29.90,5.0,Calm,Calm,-,N/A,,Overcast,0,2013-08-29 00:06:00
8:18 PM,71.6,69.8,94,29.90,5.0,Calm,Calm,-,N/A,,Overcast,0,2013-08-29 00:18:00
8:56 PM,70.0,69.1,97,29.90,5.0,Calm,Calm,-,N/A,,Mostly Cloudy,0,2013-08-29 00:56:00
9:03 PM,71.6,69.8,94,29.90,5.0,Calm,Calm,-,N/A,,Scattered Clouds,0,2013-08-29 01:03:00
9:56 PM,70.0,68.0,93,29.92,4.0,Calm,Calm,-,N/A,,Clear,0,2013-08-29 01:56:00
10:56 PM,70.0,69.1,97,29.90,2.5,East,8.1,-,N/A,,Scattered Clouds,80,2013-08-29 02:56:00
10:58 PM,69.8,69.8,100,29.90,1.5,East,8.1,-,N/A,,Mostly Cloudy,90,2013-08-29 02:58:00
11:07 PM,69.8,69.8,100,29.91,0.5,East,6.9,-,N/A,Fog,Fog,90,2013-08-29 03:07:00
11:20 PM,69.8,69.8,100,29.91,1.0,East,8.1,-,N/A,,Overcast,80,2013-08-29 03:20:00
11:45 PM,69.8,69.8,100,29.91,2.0,NE,4.6,-,N/A,,Overcast,50,2013-08-29 03:45:00
11:52 PM,69.8,69.8,100,29.91,1.2,East,6.9,-,N/A,,Overcast,80,2013-08-29 03:52:00
11:56 PM,70.0,69.1,97,29.91,1.0,East,5.8,-,N/A,,Overcast,80,2013-08-29 03:56:00